Time;durP1;ratioP1;P1;durP2;ratioP2;P2;SDS_P1;SDS_P2;PMS_P1;PMS_P2;Temp;Humidity;BMP_temperature;BMP_pressure;BME280_temperature;BME280_humidity;BME280_pressure;Samples;Min_cycle;Max_cycle;Signal;HPM_P1;HPM_P2
2022/01/05 00:00:35;;;;;;;2.05;0.40;;;3.20;99.90;;;;;;5117094;27;20105;-74
2022/01/05 00:03:01;;;;;;;3.25;0.52;;;3.20;99.90;;;;;;5134667;27;20043;-74
2022/01/05 00:05:26;;;;;;;3.20;1.00;;;3.60;99.90;;;;;;5099374;28;20130;-74
2022/01/05 00:07:52;;;;;;;1.08;0.30;;;3.40;99.90;;;;;;5100445;27;20047;-74
2022/01/05 00:10:18;;;;;;;1.48;0.40;;;3.20;99.90;;;;;;5116331;27;20039;-74
2022/01/05 00:12:43;;;;;;;2.38;0.40;;;3.00;99.90;;;;;;5134498;28;20101;-74
2022/01/05 00:15:09;;;;;;;3.78;0.52;;;3.20;99.90;;;;;;5135099;28;20130;-74
2022/01/05 00:17:36;;;;;;;3.10;0.55;;;2.80;99.90;;;;;;5100061;28;20057;-73
2022/01/05 00:20:03;;;;;;;3.38;0.50;;;3.50;99.90;;;;;;5134496;28;20079;-74
2022/01/05 00:22:29;;;;;;;3.22;0.50;;;2.90;99.90;;;;;;5134480;28;20049;-73
2022/01/05 00:24:55;;;;;;;3.75;0.60;;;2.90;99.90;;;;;;5116486;28;20039;-73
2022/01/05 00:27:20;;;;;;;5.40;0.80;;;3.10;99.90;;;;;;5134402;28;20086;-73
2022/01/05 00:29:47;;;;;;;4.95;0.70;;;3.30;99.90;;;;;;5134955;28;20047;-74
2022/01/05 00:32:13;;;;;;;3.80;0.70;;;3.20;99.90;;;;;;5116090;28;20066;-74
2022/01/05 00:34:38;;;;;;;2.88;0.52;;;3.10;99.90;;;;;;5115860;28;20132;-73
2022/01/05 00:37:04;;;;;;;2.95;0.50;;;2.90;99.90;;;;;;5116976;28;20043;-74
2022/01/05 00:39:30;;;;;;;4.28;0.60;;;3.30;99.90;;;;;;5134340;28;20043;-74
2022/01/05 00:41:56;;;;;;;4.13;0.50;;;3.00;99.90;;;;;;5134371;28;20071;-74
2022/01/05 00:44:22;;;;;;;2.20;0.32;;;4.10;99.90;;;;;;5116163;28;20062;-75
2022/01/05 00:46:48;;;;;;;3.53;0.50;;;3.00;99.90;;;;;;5116159;28;20043;-74
2022/01/05 00:49:13;;;;;;;3.75;0.80;;;3.30;99.90;;;;;;5099163;28;20050;-74
2022/01/05 00:51:39;;;;;;;4.57;0.55;;;2.90;99.90;;;;;;5134062;28;20035;-73
2022/01/05 00:54:05;;;;;;;5.57;0.60;;;3.00;99.90;;;;;;5134763;28;20047;-74
2022/01/05 00:56:31;;;;;;;3.08;0.50;;;3.00;99.90;;;;;;5134191;28;20087;-74
2022/01/05 00:58:58;;;;;;;4.53;0.50;;;2.80;99.90;;;;;;5133969;28;20148;-73
2022/01/05 01:01:23;;;;;;;6.00;0.77;;;3.40;99.90;;;;;;5115990;28;20483;-74
2022/01/05 01:03:49;;;;;;;5.72;0.90;;;3.10;99.90;;;;;;5116378;28;20058;-73
2022/01/05 01:06:15;;;;;;;5.43;0.77;;;2.70;99.90;;;;;;5134024;28;20047;-74
2022/01/05 01:08:41;;;;;;;8.65;1.05;;;2.70;99.90;;;;;;5137608;27;20051;-74
2022/01/05 01:11:07;;;;;;;5.68;0.60;;;2.80;99.90;;;;;;5138307;27;20049;-72
2022/01/05 01:13:34;;;;;;;4.88;0.70;;;2.70;99.90;;;;;;5137849;27;20086;-74
2022/01/05 01:15:59;;;;;;;4.40;0.60;;;4.10;99.90;;;;;;5138043;27;20044;-74
2022/01/05 01:18:25;;;;;;;6.03;0.93;;;3.40;99.90;;;;;;5137767;27;20045;-73
2022/01/05 01:20:51;;;;;;;6.38;0.60;;;2.90;99.90;;;;;;5137712;27;20482;-74
2022/01/05 01:23:21;;;;;;;6.68;1.00;;;2.90;99.90;;;;;;5120329;27;20103;-72
2022/01/05 01:25:47;;;;;;;5.72;0.50;;;2.90;99.90;;;;;;5119820;27;20047;-73
2022/01/05 01:28:13;;;;;;;3.47;0.57;;;3.30;99.90;;;;;;5137635;27;20043;-73
2022/01/05 01:30:39;;;;;;;4.53;0.70;;;2.70;99.90;;;;;;5137493;27;20039;-73
2022/01/05 01:33:05;;;;;;;3.58;0.70;;;4.20;99.90;;;;;;5138181;27;20082;-73
2022/01/05 01:35:30;;;;;;;3.47;0.60;;;2.90;99.90;;;;;;5102331;27;20391;-74
2022/01/05 01:37:56;;;;;;;6.55;0.93;;;2.70;99.90;;;;;;5102779;27;20463;-71
2022/01/05 01:40:22;;;;;;;4.65;0.50;;;2.70;99.90;;;;;;5119189;27;20479;-71
2022/01/05 01:42:48;;;;;;;6.88;1.15;;;3.50;99.90;;;;;;5137337;27;20151;-71
2022/01/05 01:45:15;;;;;;;4.03;0.70;;;2.70;99.90;;;;;;5102092;27;20062;-70
2022/01/05 01:47:41;;;;;;;6.28;1.05;;;3.40;99.90;;;;;;5119099;27;20050;-71
2022/01/05 01:50:08;;;;;;;9.23;0.82;;;2.80;99.90;;;;;;5119594;27;20379;-71
2022/01/05 01:52:33;;;;;;;6.32;1.00;;;2.80;99.90;;;;;;5137077;27;20039;-70
2022/01/05 01:55:00;;;;;;;5.57;0.63;;;2.90;99.90;;;;;;5118942;27;20091;-70
2022/01/05 01:57:27;;;;;;;6.15;1.00;;;2.80;99.90;;;;;;5102303;27;20125;-70
2022/01/05 01:59:52;;;;;;;6.47;0.82;;;3.90;99.90;;;;;;5136812;27;20055;-70
2022/01/05 02:02:19;;;;;;;8.27;0.73;;;2.80;99.90;;;;;;5137009;27;20062;-70
2022/01/05 02:04:45;;;;;;;7.82;1.00;;;3.80;99.90;;;;;;5118514;27;20047;-71
2022/01/05 02:07:11;;;;;;;5.75;0.80;;;3.10;99.90;;;;;;5136765;27;20043;-70
2022/01/05 02:09:37;;;;;;;4.28;0.63;;;3.10;99.90;;;;;;5137591;27;20043;-70
2022/01/05 02:12:07;;;;;;;4.95;0.70;;;2.80;99.90;;;;;;5136625;27;20035;-70
2022/01/05 02:14:33;;;;;;;4.85;0.70;;;2.90;99.90;;;;;;5118893;27;20039;-71
2022/01/05 02:17:03;;;;;;;6.78;1.13;;;2.90;99.90;;;;;;5118559;27;20055;-70
2022/01/05 02:19:28;;;;;;;6.20;0.98;;;3.30;99.90;;;;;;5135901;27;20117;-70
2022/01/05 02:21:54;;;;;;;6.80;0.85;;;3.20;99.90;;;;;;5136529;27;20198;-70
2022/01/05 02:24:20;;;;;;;4.85;0.63;;;3.40;99.90;;;;;;5136497;27;20418;-70
2022/01/05 02:26:46;;;;;;;3.70;0.90;;;2.90;99.90;;;;;;5136563;27;20084;-70
2022/01/05 02:29:12;;;;;;;4.85;0.77;;;2.70;99.90;;;;;;5136416;27;20046;-70
2022/01/05 02:31:38;;;;;;;6.65;1.15;;;3.00;99.90;;;;;;5118349;27;20043;-70
2022/01/05 02:34:04;;;;;;;6.15;0.73;;;3.20;99.90;;;;;;5137047;27;20054;-70
2022/01/05 02:36:30;;;;;;;5.95;0.73;;;2.70;99.90;;;;;;5136251;27;20043;-70
2022/01/05 02:38:55;;;;;;;5.75;0.70;;;3.30;99.90;;;;;;5136239;27;20368;-71
2022/01/05 02:41:22;;;;;;;10.60;1.48;;;3.80;99.90;;;;;;5136148;27;20118;-70
2022/01/05 02:43:48;;;;;;;5.38;1.08;;;2.80;99.90;;;;;;5118282;27;20055;-70
2022/01/05 02:46:19;;;;;;;4.38;0.73;;;3.10;99.90;;;;;;5135746;27;20047;-70
2022/01/05 02:48:47;;;;;;;5.30;0.70;;;2.70;99.90;;;;;;5135988;27;20451;-70
2022/01/05 02:51:13;;;;;;;5.57;0.82;;;3.20;99.90;;;;;;5135550;27;20491;-70
2022/01/05 02:53:39;;;;;;;5.05;0.95;;;2.60;99.90;;;;;;5135889;27;20043;-70
2022/01/05 02:56:05;;;;;;;7.30;0.80;;;3.20;99.90;;;;;;5117495;27;20047;-70
2022/01/05 02:58:31;;;;;;;9.40;1.05;;;2.70;99.90;;;;;;5135632;27;20051;-71
2022/01/05 03:00:57;;;;;;;5.70;0.90;;;3.20;99.90;;;;;;5136217;27;20051;-70
2022/01/05 03:03:23;;;;;;;6.55;1.33;;;2.60;99.90;;;;;;5135638;27;20134;-70
2022/01/05 03:05:49;;;;;;;6.38;0.85;;;2.70;99.90;;;;;;5117441;27;20131;-70
2022/01/05 03:08:15;;;;;;;4.63;0.50;;;3.50;99.90;;;;;;5117306;27;20045;-70
2022/01/05 03:10:41;;;;;;;4.38;0.70;;;2.80;99.90;;;;;;5135575;27;20451;-70
2022/01/05 03:13:07;;;;;;;6.43;0.95;;;2.90;99.90;;;;;;5117154;27;20046;-70
2022/01/05 03:15:35;;;;;;;4.40;0.80;;;3.00;99.90;;;;;;5117374;27;20093;-70
2022/01/05 03:18:02;;;;;;;3.90;0.85;;;2.90;99.90;;;;;;5117932;27;20055;-70
2022/01/05 03:20:30;;;;;;;6.25;0.77;;;5.20;99.90;;;;;;5135402;27;20093;-70
2022/01/05 03:22:56;;;;;;;8.30;0.90;;;2.80;99.90;;;;;;5135235;27;20035;-71
2022/01/05 03:25:22;;;;;;;6.05;1.27;;;3.80;99.90;;;;;;5117127;27;20046;-70
2022/01/05 03:27:49;;;;;;;5.82;0.95;;;2.60;99.90;;;;;;5135273;27;20043;-70
2022/01/05 03:30:19;;;;;;;5.00;0.80;;;2.90;99.90;;;;;;5135210;27;20058;-70
2022/01/05 03:35:36;;;;;;;5.60;0.95;;;3.70;99.90;;;;;;5135853;27;20379;-70
2022/01/05 03:38:02;;;;;;;8.07;0.73;;;3.00;99.90;;;;;;5117294;27;20094;-70
2022/01/05 03:40:30;;;;;;;5.43;0.80;;;3.10;99.90;;;;;;5100870;27;20047;-70
2022/01/05 03:42:56;;;;;;;9.13;1.10;;;2.90;99.90;;;;;;5134697;27;20051;-71
2022/01/05 03:45:22;;;;;;;6.78;1.30;;;3.30;99.90;;;;;;5117257;27;20054;-70
2022/01/05 03:47:48;;;;;;;5.25;1.00;;;3.50;99.90;;;;;;5099809;27;20057;-70
2022/01/05 03:50:13;;;;;;;6.43;1.92;;;3.50;99.90;;;;;;5134557;27;20032;-71
2022/01/05 03:52:39;;;;;;;7.35;0.90;;;3.00;99.90;;;;;;5134726;27;20039;-70
2022/01/05 03:55:06;;;;;;;6.43;1.13;;;3.10;99.90;;;;;;5134835;27;20047;-72
2022/01/05 03:57:32;;;;;;;7.50;0.90;;;2.80;99.90;;;;;;5135081;27;20057;-71
2022/01/05 03:59:58;;;;;;;8.98;0.98;;;2.90;99.90;;;;;;5134761;27;20054;-71
2022/01/05 04:02:24;;;;;;;7.63;1.00;;;2.90;99.90;;;;;;5134670;27;20039;-70
2022/01/05 04:04:50;;;;;;;4.40;0.80;;;2.90;99.90;;;;;;5116561;27;20047;-70
2022/01/05 04:07:16;;;;;;;5.40;1.23;;;3.60;99.90;;;;;;5116578;27;20391;-73
2022/01/05 04:09:42;;;;;;;6.85;0.95;;;3.20;99.90;;;;;;5099373;28;20051;-70
2022/01/05 04:12:08;;;;;;;4.25;0.70;;;3.40;99.90;;;;;;5135095;27;20035;-71
2022/01/05 04:14:34;;;;;;;8.13;0.90;;;3.00;99.90;;;;;;5134746;28;20479;-71
2022/01/05 04:16:59;;;;;;;7.80;1.20;;;3.20;99.90;;;;;;5116804;28;20050;-70
2022/01/05 04:19:25;;;;;;;11.65;1.17;;;3.70;99.90;;;;;;5116857;28;20378;-70
2022/01/05 04:21:51;;;;;;;7.03;0.95;;;3.40;99.90;;;;;;5115907;28;20050;-70
2022/01/05 04:24:17;;;;;;;5.85;0.75;;;3.10;99.90;;;;;;5134480;28;20039;-70
2022/01/05 04:26:43;;;;;;;6.03;1.30;;;3.60;99.90;;;;;;5116341;28;20039;-71
2022/01/05 04:29:10;;;;;;;7.70;1.27;;;4.10;99.90;;;;;;5116154;28;20562;-70
2022/01/05 04:31:36;;;;;;;9.57;1.20;;;3.50;99.90;;;;;;5134308;28;20472;-71
2022/01/05 04:34:02;;;;;;;9.15;1.27;;;3.20;99.90;;;;;;5116020;28;20086;-72
2022/01/05 04:36:28;;;;;;;4.68;0.60;;;3.80;99.90;;;;;;5134373;28;20470;-70
2022/01/05 04:38:54;;;;;;;6.50;0.90;;;3.00;99.90;;;;;;5116119;28;20440;-71
2022/01/05 04:41:20;;;;;;;9.90;0.85;;;3.40;99.90;;;;;;5116470;27;20424;-70
2022/01/05 04:43:45;;;;;;;5.63;1.10;;;3.30;99.90;;;;;;5119812;27;20051;-71
2022/01/05 04:46:11;;;;;;;5.05;0.80;;;3.40;99.90;;;;;;5138358;27;20093;-70
2022/01/05 04:48:37;;;;;;;8.73;1.20;;;3.60;99.90;;;;;;5138583;27;20126;-71
2022/01/05 04:51:03;;;;;;;6.15;1.45;;;3.40;99.90;;;;;;5137959;27;20448;-70
2022/01/05 04:53:29;;;;;;;4.95;0.88;;;3.60;99.90;;;;;;5103439;27;20055;-71
2022/01/05 04:55:55;;;;;;;6.65;0.85;;;3.20;99.90;;;;;;5138202;27;20051;-69
2022/01/05 04:58:21;;;;;;;6.28;0.80;;;3.50;99.90;;;;;;5137986;27;20509;-70
2022/01/05 05:00:47;;;;;;;3.97;0.60;;;3.90;99.90;;;;;;5139045;27;20051;-70
2022/01/05 05:03:13;;;;;;;2.13;0.57;;;4.10;99.90;;;;;;5120016;27;20503;-70
2022/01/05 05:05:39;;;;;;;8.38;0.85;;;3.50;99.90;;;;;;5120659;27;20393;-71
2022/01/05 05:08:05;;;;;;;3.67;0.70;;;3.40;99.90;;;;;;5137744;27;20062;-71
2022/01/05 05:10:31;;;;;;;5.25;0.50;;;3.70;99.90;;;;;;5138009;27;20047;-70
2022/01/05 05:12:57;;;;;;;4.10;0.60;;;3.70;99.90;;;;;;5119544;27;20543;-70
2022/01/05 05:15:23;;;;;;;7.20;0.68;;;3.30;99.90;;;;;;5137865;27;20054;-70
2022/01/05 05:17:49;;;;;;;6.60;0.75;;;3.60;99.90;;;;;;5138311;27;20043;-70
2022/01/05 05:20:15;;;;;;;3.70;0.47;;;3.90;99.90;;;;;;5120524;27;20119;-70
2022/01/05 05:22:41;;;;;;;4.57;0.65;;;3.80;99.90;;;;;;5119435;27;20045;-70
2022/01/05 05:25:07;;;;;;;4.63;0.65;;;3.70;99.90;;;;;;5119462;27;20072;-69
2022/01/05 05:27:33;;;;;;;4.85;0.90;;;3.50;99.90;;;;;;5137544;27;20125;-71
2022/01/05 05:29:58;;;;;;;10.43;0.80;;;3.60;99.90;;;;;;5119439;27;20086;-70
2022/01/05 05:32:24;;;;;;;5.32;0.70;;;4.00;99.90;;;;;;5137977;27;20099;-71
2022/01/05 05:34:50;;;;;;;5.53;0.90;;;4.10;99.90;;;;;;5137366;27;20066;-70
2022/01/05 05:37:16;;;;;;;6.03;0.90;;;3.60;99.90;;;;;;5101999;27;20047;-70
2022/01/05 05:39:43;;;;;;;6.65;0.80;;;4.20;99.90;;;;;;5137440;27;20057;-70
2022/01/05 05:42:09;;;;;;;7.18;0.90;;;3.60;99.90;;;;;;5119175;27;20082;-69
2022/01/05 05:44:35;;;;;;;8.00;1.00;;;3.50;99.90;;;;;;5137534;27;20131;-70
2022/01/05 05:47:02;;;;;;;7.97;0.90;;;4.10;99.90;;;;;;5137259;27;20409;-73
2022/01/05 05:49:27;;;;;;;5.20;0.90;;;3.50;99.90;;;;;;5118885;27;20043;-70
2022/01/05 05:51:53;;;;;;;4.70;0.90;;;4.30;99.90;;;;;;5136744;27;20042;-70
2022/01/05 05:54:19;;;;;;;6.75;0.85;;;3.60;99.90;;;;;;5117854;27;20043;-71
2022/01/05 05:56:44;;;;;;;7.95;1.00;;;3.80;99.90;;;;;;5118823;27;20447;-70
2022/01/05 05:59:10;;;;;;;6.18;1.45;;;3.80;99.90;;;;;;5118578;27;20055;-74
2022/01/05 06:01:36;;;;;;;8.40;1.77;;;4.10;99.90;;;;;;5136917;27;20047;-71
2022/01/05 06:04:02;;;;;;;5.55;0.80;;;4.20;99.90;;;;;;5085063;27;20100;-70
2022/01/05 06:06:28;;;;;;;6.40;0.90;;;3.90;99.90;;;;;;5137424;27;20062;-70
2022/01/05 06:08:54;;;;;;;10.07;0.90;;;4.30;99.90;;;;;;5118412;27;20054;-68
2022/01/05 06:11:20;;;;;;;8.13;0.80;;;4.50;99.90;;;;;;5118371;27;20064;-72
2022/01/05 06:13:46;;;;;;;6.28;0.77;;;4.10;99.90;;;;;;5137532;27;20036;-68
2022/01/05 06:16:12;;;;;;;6.15;0.70;;;3.80;99.90;;;;;;5137206;27;20054;-68
2022/01/05 06:18:37;;;;;;;4.85;0.70;;;4.10;99.90;;;;;;5136906;27;20099;-68
2022/01/05 06:21:03;;;;;;;5.22;1.10;;;4.00;99.90;;;;;;5118399;27;20047;-69
2022/01/05 06:23:29;;;;;;;6.35;1.52;;;3.70;99.90;;;;;;5118991;27;20035;-67
2022/01/05 06:25:55;;;;;;;5.55;0.80;;;4.10;99.90;;;;;;5117866;27;20505;-69
2022/01/05 06:28:21;;;;;;;5.60;0.75;;;3.50;99.90;;;;;;5136438;27;20066;-69
2022/01/05 06:30:46;;;;;;;11.07;1.50;;;4.30;99.90;;;;;;5136373;27;20128;-68
2022/01/05 06:33:12;;;;;;;8.90;1.38;;;3.40;99.90;;;;;;5136577;27;20081;-68
2022/01/05 06:35:38;;;;;;;4.03;0.80;;;4.10;99.90;;;;;;5118382;27;20471;-68
2022/01/05 06:38:04;;;;;;;6.07;1.20;;;3.90;99.90;;;;;;5100982;27;20043;-68
2022/01/05 06:40:30;;;;;;;3.88;0.60;;;4.00;99.90;;;;;;5136488;27;20039;-69
2022/01/05 06:42:56;;;;;;;3.80;0.60;;;3.70;99.90;;;;;;5136171;27;20039;-69
2022/01/05 06:45:22;;;;;;;2.97;0.40;;;3.80;99.90;;;;;;5136130;27;20380;-70
2022/01/05 06:47:48;;;;;;;4.15;0.70;;;3.60;99.90;;;;;;5136016;27;20042;-68
2022/01/05 06:50:14;;;;;;;4.90;0.70;;;4.80;99.90;;;;;;5118179;27;20043;-70
2022/01/05 06:52:40;;;;;;;5.88;0.82;;;4.00;99.90;;;;;;5135622;27;20439;-70
2022/01/05 06:55:06;;;;;;;6.97;0.95;;;3.70;99.90;;;;;;5135935;27;20039;-69
2022/01/05 06:57:32;;;;;;;4.93;0.63;;;3.80;99.90;;;;;;5135874;27;20043;-69
2022/01/05 06:59:58;;;;;;;7.43;0.85;;;3.80;99.90;;;;;;5136185;27;20062;-69
2022/01/05 07:02:24;;;;;;;4.05;1.00;;;3.80;99.90;;;;;;5117573;27;20479;-69
2022/01/05 07:04:49;;;;;;;6.28;0.93;;;4.60;99.90;;;;;;5117274;27;20051;-72
2022/01/05 07:07:16;;;;;;;5.82;0.75;;;3.80;99.90;;;;;;5135968;27;20039;-71
2022/01/05 07:09:42;;;;;;;6.53;0.90;;;3.80;99.90;;;;;;5117491;27;20039;-70
2022/01/05 07:12:08;;;;;;;5.95;1.08;;;4.00;99.90;;;;;;5135448;27;20047;-71
2022/01/05 07:14:34;;;;;;;7.05;0.90;;;4.00;99.90;;;;;;5101251;27;20104;-71
2022/01/05 07:17:00;;;;;;;6.57;1.00;;;4.10;99.90;;;;;;5117139;27;20043;-71
2022/01/05 07:19:26;;;;;;;4.38;0.73;;;4.20;99.90;;;;;;5117153;27;20039;-71
2022/01/05 07:21:51;;;;;;;5.70;0.70;;;4.60;99.90;;;;;;5083111;27;20054;-72
2022/01/05 07:24:19;;;;;;;4.45;0.88;;;4.10;99.90;;;;;;5117850;27;20046;-72
2022/01/05 07:26:46;;;;;;;6.68;0.80;;;4.80;99.90;;;;;;5135307;27;20050;-72
2022/01/05 07:29:13;;;;;;;5.32;0.85;;;3.90;99.90;;;;;;5135248;27;20095;-72
2022/01/05 07:31:39;;;;;;;4.72;0.80;;;4.30;99.90;;;;;;5117324;27;20078;-71
2022/01/05 07:34:05;;;;;;;4.90;0.70;;;4.30;99.90;;;;;;5135131;27;20047;-70
2022/01/05 07:36:31;;;;;;;4.55;0.90;;;4.80;99.90;;;;;;5135414;27;20056;-71
2022/01/05 07:38:56;;;;;;;3.63;0.50;;;4.20;99.90;;;;;;5135071;27;20039;-70
2022/01/05 07:41:22;;;;;;;4.07;1.33;;;4.60;99.90;;;;;;5135093;27;20050;-70
2022/01/05 07:43:48;;;;;;;4.68;0.70;;;4.50;99.90;;;;;;5116373;27;20372;-72
2022/01/05 07:46:13;;;;;;;5.57;0.70;;;4.90;99.90;;;;;;5116633;28;20043;-72
2022/01/05 07:48:39;;;;;;;4.85;0.80;;;4.80;99.90;;;;;;5134924;27;20078;-72
2022/01/05 07:51:05;;;;;;;3.47;0.50;;;4.10;99.90;;;;;;5135612;27;20470;-70
2022/01/05 07:53:31;;;;;;;4.25;0.98;;;4.90;99.90;;;;;;5134895;27;20043;-71
2022/01/05 07:55:56;;;;;;;4.75;0.60;;;4.50;99.90;;;;;;5099788;27;20078;-71
2022/01/05 07:58:23;;;;;;;5.18;1.05;;;4.60;99.90;;;;;;5099583;27;20104;-71
2022/01/05 08:00:49;;;;;;;2.40;0.50;;;5.00;99.90;;;;;;5116714;27;20059;-71
2022/01/05 08:03:15;;;;;;;7.32;0.90;;;4.70;99.90;;;;;;5116874;27;20053;-71
2022/01/05 08:05:41;;;;;;;5.40;0.47;;;4.50;99.90;;;;;;5117138;28;20591;-68
2022/01/05 08:08:07;;;;;;;4.03;0.70;;;4.60;99.90;;;;;;5116406;27;20463;-70
2022/01/05 08:10:32;;;;;;;2.45;0.80;;;4.80;99.90;;;;;;5116872;27;20483;-71
2022/01/05 08:12:58;;;;;;;5.05;0.40;;;5.30;99.90;;;;;;5136383;27;20047;-70
2022/01/05 08:15:24;;;;;;;5.68;0.50;;;4.30;99.90;;;;;;5120446;28;20043;-74
2022/01/05 08:17:50;;;;;;;4.70;0.45;;;4.40;99.90;;;;;;5134860;27;20439;-71
2022/01/05 08:20:16;;;;;;;6.57;0.60;;;4.50;99.90;;;;;;5116625;28;20119;-71
2022/01/05 08:22:44;;;;;;;8.43;0.52;;;4.70;99.90;;;;;;5100108;28;20126;-69
2022/01/05 08:25:11;;;;;;;4.65;0.45;;;4.80;99.90;;;;;;5135182;28;20039;-71
2022/01/05 08:27:45;;;;;;;2.47;0.40;;;4.80;99.90;;;;;;5134594;28;20050;-70
2022/01/05 08:30:19;;;;;;;3.10;0.70;;;4.90;99.90;;;;;;5134646;28;20055;-70
2022/01/05 08:32:47;;;;;;;4.38;0.95;;;4.50;99.90;;;;;;5134793;28;20486;-70
2022/01/05 08:35:17;;;;;;;4.47;0.60;;;4.40;99.90;;;;;;5134425;28;20180;-68
2022/01/05 08:37:46;;;;;;;5.95;1.13;;;4.70;99.90;;;;;;5099733;28;20100;-68
2022/01/05 08:40:23;;;;;;;2.28;0.60;;;4.70;99.90;;;;;;5099874;28;20039;-69
2022/01/05 08:42:50;;;;;;;3.28;0.50;;;4.50;99.90;;;;;;5111360;28;20088;-69
2022/01/05 08:45:17;;;;;;;2.45;0.40;;;4.80;99.90;;;;;;5134953;28;20047;-69
2022/01/05 08:47:47;;;;;;;3.22;0.55;;;5.30;99.90;;;;;;5116158;28;20114;-70
2022/01/05 08:50:18;;;;;;;3.78;0.50;;;4.90;99.90;;;;;;5134077;28;20039;-69
2022/01/05 08:52:44;;;;;;;2.50;0.40;;;5.20;99.90;;;;;;5116900;28;20051;-70
2022/01/05 08:55:11;;;;;;;5.85;0.60;;;5.50;99.90;;;;;;5138806;28;20047;-68
2022/01/05 08:57:37;;;;;;;4.25;0.50;;;5.40;99.90;;;;;;5134819;28;20397;-68
2022/01/05 09:00:05;;;;;;;2.63;0.40;;;4.80;99.90;;;;;;5134223;28;20104;-68
2022/01/05 09:02:31;;;;;;;4.35;0.40;;;4.60;99.90;;;;;;5134513;28;20048;-68
2022/01/05 09:04:56;;;;;;;3.65;0.55;;;5.50;99.90;;;;;;5134990;28;20043;-69
2022/01/05 09:07:22;;;;;;;5.30;0.60;;;4.70;99.90;;;;;;5134194;28;20047;-71
2022/01/05 09:09:48;;;;;;;4.53;0.50;;;5.90;99.90;;;;;;5134960;28;20047;-72
2022/01/05 09:12:14;;;;;;;6.80;1.33;;;4.80;99.90;;;;;;5098825;28;20039;-73
2022/01/05 09:14:40;;;;;;;4.05;0.50;;;4.80;99.90;;;;;;5115807;28;20082;-72
2022/01/05 09:17:06;;;;;;;4.80;0.57;;;5.50;99.90;;;;;;5133447;28;20046;-71
2022/01/05 09:19:33;;;;;;;5.00;0.40;;;5.10;99.90;;;;;;5133869;28;20071;-72
2022/01/05 09:21:59;;;;;;;7.72;0.98;;;4.80;99.90;;;;;;5134344;28;20046;-77
2022/01/05 09:24:25;;;;;;;4.35;0.65;;;4.90;99.90;;;;;;5133839;28;20047;-71
2022/01/05 09:26:52;;;;;;;6.78;0.82;;;5.10;99.90;;;;;;5133916;28;20134;-69
2022/01/05 09:29:18;;;;;;;4.53;0.80;;;5.30;99.90;;;;;;5119430;27;20039;-68
2022/01/05 09:31:44;;;;;;;9.43;1.33;;;5.10;99.90;;;;;;5137528;27;20089;-69
2022/01/05 09:34:11;;;;;;;4.47;1.20;;;5.30;99.90;;;;;;5137170;27;20503;-71
2022/01/05 09:36:42;;;;;;;8.07;0.80;;;5.10;99.90;;;;;;5137531;27;20043;-68
2022/01/05 09:42:05;;;;;;;6.07;0.73;;;5.20;99.90;;;;;;5121893;27;20548;-69
2022/01/05 09:44:41;;;;;;;7.00;1.00;;;5.30;99.90;;;;;;5137975;27;20047;-71
2022/01/05 09:47:26;;;;;;;5.70;0.70;;;5.40;99.90;;;;;;5137336;27;20039;-71
2022/01/05 09:49:58;;;;;;;10.07;0.90;;;5.30;99.90;;;;;;5137552;27;20074;-68
2022/01/05 09:52:24;;;;;;;9.32;1.10;;;5.60;99.90;;;;;;5137534;27;20043;-68
2022/01/05 09:54:51;;;;;;;3.97;0.70;;;5.80;99.90;;;;;;5137512;27;20050;-70
2022/01/05 09:57:19;;;;;;;4.10;0.70;;;5.50;99.90;;;;;;5137127;27;20049;-71
2022/01/05 09:59:50;;;;;;;6.18;1.02;;;6.00;99.90;;;;;;5118936;27;20059;-69
2022/01/05 10:02:16;;;;;;;7.15;1.33;;;5.70;99.90;;;;;;5119185;27;20074;-71
2022/01/05 10:04:43;;;;;;;9.07;0.90;;;5.60;99.90;;;;;;5137408;27;20051;-69
2022/01/05 10:07:09;;;;;;;6.25;0.88;;;5.90;99.90;;;;;;5134924;27;20082;-70
2022/01/05 10:09:42;;;;;;;7.65;0.80;;;5.80;99.90;;;;;;5134758;27;20388;-74
2022/01/05 10:12:09;;;;;;;13.00;1.45;;;5.60;99.90;;;;;;5134126;27;20043;-72
2022/01/05 10:14:41;;;;;;;11.57;1.05;;;5.80;99.90;;;;;;5133448;27;20054;-69
2022/01/05 10:17:16;;;;;;;10.63;1.02;;;6.30;99.90;;;;;;5116497;27;20108;-73
2022/01/05 10:19:44;;;;;;;9.48;0.80;;;5.80;99.90;;;;;;5115820;27;20047;-69
2022/01/05 10:22:32;;;;;;;9.68;1.40;;;6.00;99.90;;;;;;5115162;27;20043;-69
2022/01/05 10:24:58;;;;;;;9.18;1.05;;;5.90;99.90;;;;;;5135252;27;20472;-71
2022/01/05 10:27:25;;;;;;;5.07;0.93;;;6.10;99.90;;;;;;5134460;27;20082;-70
2022/01/05 10:29:56;;;;;;;10.70;0.98;;;6.20;99.90;;;;;;5116353;27;20057;-74
2022/01/05 10:32:23;;;;;;;9.18;1.30;;;6.20;99.90;;;;;;5133931;27;20471;-68
2022/01/05 10:35:04;;;;;;;10.27;0.95;;;6.80;99.90;;;;;;5133966;27;20047;-71
2022/01/05 10:37:30;;;;;;;9.57;1.38;;;6.20;99.90;;;;;;5098723;27;20047;-73
2022/01/05 10:40:17;;;;;;;5.80;1.40;;;6.60;99.90;;;;;;5080691;27;20043;-76
2022/01/05 10:42:44;;;;;;;9.02;1.30;;;6.30;99.90;;;;;;5133667;27;20043;-71
2022/01/05 10:45:14;;;;;;;7.95;1.50;;;6.50;99.90;;;;;;5132997;27;20076;-73
2022/01/05 10:47:41;;;;;;;9.60;1.00;;;6.40;99.90;;;;;;5115725;27;20126;-73
2022/01/05 10:50:17;;;;;;;8.52;1.35;;;6.40;99.90;;;;;;5133104;27;20083;-73
2022/01/05 10:52:55;;;;;;;9.40;1.83;;;6.50;99.90;;;;;;5133894;27;20047;-74
2022/01/05 10:55:24;;;;;;;6.28;1.00;;;6.90;99.90;;;;;;5115820;27;20457;-74
2022/01/05 10:58:00;;;;;;;17.25;1.30;;;6.50;99.90;;;;;;5133870;27;20122;-73
2022/01/05 11:00:46;;;;;;;7.95;1.25;;;6.60;99.90;;;;;;5133990;27;20388;-72
2022/01/05 11:03:39;;;;;;;6.18;0.90;;;6.50;99.90;;;;;;5115164;27;20061;-72
2022/01/05 11:06:10;;;;;;;8.63;1.65;;;6.60;99.90;;;;;;5114878;27;20049;-70
2022/01/05 11:08:59;;;;;;;14.23;1.55;;;6.70;99.90;;;;;;5133425;27;20047;-78
2022/01/05 11:11:43;;;;;;;11.20;1.05;;;6.50;99.90;;;;;;5132985;27;20059;-75
2022/01/05 11:14:18;;;;;;;6.25;1.02;;;6.80;99.90;;;;;;5114689;27;20347;-75
2022/01/05 11:16:46;;;;;;;13.13;1.85;;;6.70;99.90;;;;;;5133485;27;20151;-73
2022/01/05 11:19:33;;;;;;;11.02;2.05;;;7.10;99.90;;;;;;5132725;27;20511;-68
2022/01/05 11:22:15;;;;;;;10.07;1.30;;;6.90;99.90;;;;;;5133338;27;20035;-70
2022/01/05 11:24:53;;;;;;;13.63;1.50;;;6.40;99.90;;;;;;5132728;27;20087;-76
2022/01/05 11:27:28;;;;;;;11.90;1.17;;;6.80;99.90;;;;;;5132128;27;20043;-70
2022/01/05 11:29:55;;;;;;;9.07;1.10;;;6.90;99.90;;;;;;5133601;27;20050;-73
2022/01/05 11:32:26;;;;;;;8.48;1.67;;;6.90;99.90;;;;;;5133138;27;20146;-71
2022/01/05 11:34:52;;;;;;;10.02;1.75;;;7.00;99.90;;;;;;5133061;27;20055;-70
2022/01/05 11:37:19;;;;;;;11.90;2.10;;;7.10;99.90;;;;;;5132785;27;20051;-69
2022/01/05 11:39:51;;;;;;;13.93;1.70;;;7.00;99.90;;;;;;5138582;27;20051;-70
2022/01/05 11:42:31;;;;;;;12.02;1.75;;;7.00;99.90;;;;;;5133701;27;20100;-69
2022/01/05 11:44:57;;;;;;;10.95;1.17;;;6.90;99.90;;;;;;5132645;27;20070;-71
2022/01/05 11:47:25;;;;;;;13.02;1.85;;;7.10;99.90;;;;;;5132568;27;20050;-70
2022/01/05 11:50:15;;;;;;;13.55;1.77;;;7.40;99.90;;;;;;5097644;27;20119;-69
2022/01/05 11:52:58;;;;;;;8.98;1.50;;;7.30;99.90;;;;;;5114021;27;20097;-71
2022/01/05 11:55:24;;;;;;;13.10;1.45;;;7.30;99.90;;;;;;5132521;27;20074;-71
2022/01/05 11:58:19;;;;;;;15.57;1.83;;;7.80;99.90;;;;;;5097512;27;20394;-70
2022/01/05 12:00:47;;;;;;;9.60;1.77;;;7.30;99.90;;;;;;5113024;27;20062;-69
2022/01/05 12:03:13;;;;;;;11.88;1.55;;;7.10;99.90;;;;;;5132174;27;20101;-73
2022/01/05 12:06:03;;;;;;;13.73;1.77;;;7.30;99.90;;;;;;5132461;27;20114;-69
2022/01/05 12:08:58;;;;;;;9.13;1.67;;;7.30;99.90;;;;;;5132208;27;20344;-70
2022/01/05 12:11:42;;;;;;;11.75;1.60;;;7.30;99.90;;;;;;5132560;27;20453;-69
2022/01/05 12:14:22;;;;;;;12.32;1.67;;;7.40;99.90;;;;;;5132663;27;20546;-69
2022/01/05 12:17:00;;;;;;;7.95;1.50;;;7.30;99.90;;;;;;5132171;28;20047;-73
2022/01/05 12:19:34;;;;;;;11.38;1.38;;;7.20;99.90;;;;;;5132207;28;20122;-72
2022/01/05 12:22:41;;;;;;;10.32;1.20;;;7.20;99.90;;;;;;5114506;28;20445;-72
2022/01/05 12:25:10;;;;;;;10.85;1.10;;;7.30;99.90;;;;;;5058626;28;20047;-70
2022/01/05 12:27:58;;;;;;;8.65;1.40;;;7.10;99.90;;;;;;5132465;28;20058;-74
2022/01/05 12:30:26;;;;;;;5.63;0.90;;;7.20;99.90;;;;;;5132182;28;20039;-69
2022/01/05 12:33:12;;;;;;;5.53;1.00;;;7.40;99.90;;;;;;5114615;28;20047;-71
2022/01/05 12:35:46;;;;;;;7.60;1.08;;;7.30;99.90;;;;;;5132014;28;20043;-70
2022/01/05 12:38:29;;;;;;;8.55;1.40;;;6.90;99.90;;;;;;5131858;28;20114;-70
2022/01/05 12:40:55;;;;;;;9.05;1.15;;;7.20;99.90;;;;;;5132868;28;20043;-69
2022/01/05 12:43:21;;;;;;;5.85;0.90;;;7.20;99.90;;;;;;5132059;28;20042;-71
2022/01/05 12:45:53;;;;;;;12.57;1.38;;;7.30;99.90;;;;;;5131817;28;20091;-68
2022/01/05 12:48:39;;;;;;;8.15;1.20;;;7.30;99.90;;;;;;5132261;28;20070;-69
2022/01/05 12:51:14;;;;;;;5.20;0.85;;;7.50;99.90;;;;;;5113548;28;20051;-68
2022/01/05 12:54:10;;;;;;;5.80;0.90;;;7.60;99.90;;;;;;5131921;28;20046;-74
2022/01/05 12:56:40;;;;;;;6.68;0.95;;;7.20;99.90;;;;;;5131647;28;20170;-71
2022/01/05 12:59:08;;;;;;;7.82;0.88;;;7.20;99.90;;;;;;5131380;28;20055;-73
2022/01/05 13:01:34;;;;;;;11.65;1.02;;;7.40;99.90;;;;;;5131679;28;20414;-73
2022/01/05 13:04:05;;;;;;;7.80;0.85;;;7.30;99.90;;;;;;5133986;27;20078;-76
2022/01/05 13:06:32;;;;;;;7.45;0.80;;;7.50;99.90;;;;;;5135930;27;20047;-78